• Join FlightAware (Why Join?)
  • Login
  • US Flag 
06:05AM EDT


 

Airport Tracker/Info


-or-


 

Live Flight TrackerFlight Track Log ✈ N523JM ✈ 20-Oct-2013 ✈ KPBI - KOSU

Flight Track Log - Related Links

Times and Time Zones

All times are in EDT time to prevent confusion due to time zone crossing. See the N523JM flight status page for this flight to view local times or setup timezone preferences in your user account.

Time Position Orientation Groundspeed Altitude Reporting Facility
EDT Latitude Longitude Course Direction KTS MPH feet Rate Location/Type
01:18PM 26.7686 -80.2117 341° North 242 278 5,000  Level Miami Center
01:19PM 26.8256 -80.2878 310° West 269 310 8,000 2,760 Climbing Miami Center
01:20PM 26.8786 -80.3406 318° Northwest 278 320 10,600 2,580 Climbing Miami Center
01:21PM 26.9569 -80.3756 338° Northwest 293 337 13,200 2,820 Climbing Miami Center
01:22PM 27.3481 -80.2238 341° North  Level Estimated
01:22PM 27.0478 -80.4203 336° Northwest 320 368 16,300  Level Miami Center
01:23PM 27.1303 -80.4625 336° Northwest 325 374 18,800 2,160 Climbing Miami Center
01:24PM 27.2103 -80.5142 330° Northwest 325 374 20,700 1,680 Climbing Miami Center
01:25PM 27.2900 -80.5819 323° Northwest 336 387 22,200 1,500 Climbing Miami Center
01:26PM 27.3872 -80.6203 341° North 349 402 23,700 1,500 Climbing Miami Center
01:27PM 27.4797 -80.6772 331° Northwest 368 423 25,200 1,500 Climbing Miami Center
01:28PM 27.5742 -80.7342 332° Northwest 374 430 26,800 1,380 Climbing Miami Center
01:29PM 27.6522 -80.7814 332° Northwest 382 440 28,000 1,200 Climbing Miami Center
01:30PM 27.7633 -80.8367 336° Northwest 395 455 29,300 1,200 Climbing Miami Center
01:31PM 27.8708 -80.8803 340° North 400 460 30,400 1,140 Climbing Miami Center
01:32PM 27.9800 -80.9267 339° North 412 474 31,600 1,140 Climbing Miami Center
01:33PM 28.0872 -80.9706 340° North 412 474 32,700 1,140 Climbing Miami Center
01:34PM 28.2008 -81.0169 340° North 412 474 33,900 1,140 Climbing Miami Center
01:35PM 28.3058 -81.0633 339° North 417 480 35,000 1,080 Climbing Miami Center
01:36PM 28.4111 -81.1072 340° North 407 468 36,100 1,020 Climbing Miami Center
01:37PM 28.5181 -81.1561 338° Northwest 407 468 37,000 420 Climbing Jacksonville Center
01:38PM 28.6272 -81.2039 339° North 407 468 37,000  Level Jacksonville Center
01:39PM 28.7422 -81.2256 351° North 412 474 37,000  Level Jacksonville Center
01:40PM 28.8717 -81.2353 356° North 437 503 37,000  Level Jacksonville Center
01:41PM 28.9992 -81.2450 356° North 451 519 37,000  Level Jacksonville Center
01:42PM 29.1308 -81.2547 356° North 462 532 37,000  Level Jacksonville Center
01:43PM 29.2603 -81.2622 357° North 462 532 37,000  Level Jacksonville Center
01:44PM 29.3897 -81.2694 357° North 462 532 37,000  Level Jacksonville Center
01:45PM 29.5194 -81.2839 354° North 462 532 37,000  Level Jacksonville Center
01:46PM 29.6511 -81.2939 356° North 462 532 37,000  Level Jacksonville Center
01:47PM 29.7828 -81.3011 357° North 462 532 37,000  Level Jacksonville Center
01:48PM 29.9122 -81.3111 356° North 462 532 37,000  Level Jacksonville Center
01:49PM 30.0439 -81.3208 356° North 462 532 37,000  Level Jacksonville Center
01:50PM 30.1631 -81.3286 357° North 468 539 37,000  Level Jacksonville Center
01:51PM 30.2947 -81.3361 357° North 468 539 37,000  Level Jacksonville Center
01:52PM 30.4283 -81.3458 356° North 473 544 37,000  Level Jacksonville Center
01:53PM 30.5600 -81.3583 355° North 473 544 37,000  Level Jacksonville Center
01:54PM 30.6936 -81.3658 357° North 478 550 37,000  Level Jacksonville Center
01:55PM 30.8253 -81.3758 356° North 478 550 37,000  Level Jacksonville Center
01:56PM 30.9569 -81.3881 355° North 478 550 37,000  Level Jacksonville Center
01:57PM 31.0886 -81.3983 356° North 478 550 37,000  Level Jacksonville Center
01:58PM 31.2225 -81.4083 356° North 478 550 37,000  Level Jacksonville Center
01:59PM 31.3644 -81.4181 357° North 478 550 37,000  Level Jacksonville Center
02:00PM 31.4836 -81.4261 357° North 466 536 37,000  Level Jacksonville Center
02:01PM 31.6300 -81.4383 356° North 472 543 37,000  Level Jacksonville Center
02:02PM 31.7617 -81.4508 355° North 472 543 37,000  Level Jacksonville Center
02:03PM 31.8808 -81.4589 357° North 482 555 37,000  Level Jacksonville Center
02:04PM 32.0269 -81.4714 356° North 482 555 37,000  Level Jacksonville Center
02:05PM 32.1628 -81.4839 356° North 482 555 37,000  Level Jacksonville Center
02:06PM 32.2861 -81.4942 356° North 482 555 37,000  Level Jacksonville Center
02:07PM 32.4344 -81.5019 357° North 477 549 37,000  Level Jacksonville Center
02:08PM 32.5536 -81.5100 357° North 477 549 37,000  Level Jacksonville Center
02:09PM 32.6997 -81.5200 357° North 477 549 37,000  Level Jacksonville Center
02:10PM 32.8356 -81.5328 355° North 477 549 37,000  Level Jacksonville Center
02:11PM 32.9694 -81.5456 355° North 477 549 37,000  Level Jacksonville Center
02:12PM 33.1031 -81.5561 356° North 482 555 37,000  Level Jacksonville Center
02:13PM 33.2367 -81.5614 358° North 477 549 37,000  Level Jacksonville Center
02:14PM 33.4836 -81.5831 356° North 474 545 37,000  Level Atlanta Center
02:15PM 33.6175 -81.5917 357° North 474 545 37,000  Level Atlanta Center
02:16PM 33.7386 -81.6008 356° North 479 551 37,000  Level Atlanta Center
02:17PM 33.8744 -81.6094 357° North 479 551 37,000  Level Atlanta Center
02:18PM 34.0064 -81.6206 356° North 479 551 37,000  Level Atlanta Center
02:19PM 34.1400 -81.6319 356° North 479 551 37,000  Level Atlanta Center
02:20PM 34.2739 -81.6431 356° North 479 551 37,000  Level Atlanta Center
02:21PM 34.4097 -81.6569 355° North 479 551 37,000  Level Atlanta Center
02:22PM 34.5436 -81.6683 356° North 479 551 37,100 300 Climbing Atlanta Center
02:23PM 34.6753 -81.6822 355° North 479 551 37,600 420 Climbing Atlanta Center
02:24PM 34.8050 -81.6939 356° North 479 551 38,000 180 Climbing Atlanta Center
02:25PM 34.9386 -81.7028 357° North 474 545 38,000  Level Atlanta Center
02:26PM 35.0808 -81.7139 356° North 468 539 38,000  Level Atlanta Center
02:27PM 35.2144 -81.7253 356° North 468 539 38,000  Level Atlanta Center
02:28PM 35.3461 -81.7369 356° North 474 545 38,000  Level Atlanta Center
02:29PM 35.4800 -81.7486 356° North 480 552 38,000  Level Atlanta Center
02:30PM 35.6136 -81.7575 357° North 480 552 38,000  Level Atlanta Center
02:31PM 35.7328 -81.7697 355° North 480 552 38,000  Level Atlanta Center
02:32PM 35.8664 -81.7786 357° North 480 552 38,000  Level Atlanta Center
02:33PM 36.0022 -81.7878 357° North 480 552 38,000  Level Atlanta Center
02:34PM 36.1297 -81.7997 356° North 480 552 38,000 -120 Level Atlanta Center
02:35PM 36.2611 -81.8089 357° North 475 547 37,800 -360 Descending Atlanta Center
02:36PM 36.4053 -81.8203 356° North 475 547 37,300 -420 Descending Atlanta Center
02:37PM 36.5222 -81.8300 356° North 480 552 37,000 -120 Descending Atlanta Center
02:40PM 36.8319 -81.8561 356° North 476 548 37,000  Level Indianapolis Center
02:41PM 36.9647 -81.8675 356° North 479 551 37,000  Level Indianapolis Center
02:42PM 37.0972 -81.8797 356° North 478 550 37,000 -360 Level Indianapolis Center
02:43PM 37.2311 -81.8911 356° North 481 554 36,300 -840 Descending Indianapolis Center
02:44PM 37.3664 -81.9019 356° North 486 559 35,300 -1,140 Descending Indianapolis Center
02:45PM 37.5250 -81.9164 356° North 488 562 34,000 -1,200 Descending Indianapolis Center
02:46PM 37.6628 -81.9294 356° North 494 568 32,900 -1,020 Descending Indianapolis Center
02:47PM 37.7997 -81.9397 357° North 493 567 31,900 -960 Descending Indianapolis Center
02:48PM 37.9475 -81.9536 356° North 496 571 31,000 -480 Descending Indianapolis Center
02:49PM 38.0850 -81.9650 356° North 492 566 31,000 -660 Level Indianapolis Center
02:50PM 38.2189 -81.9772 356° North 484 557 29,700 -1,380 Descending Indianapolis Center
02:51PM 38.3561 -81.9911 355° North 489 563 28,200 -1,440 Descending Indianapolis Center
02:52PM 38.4939 -82.0036 356° North 490 564 26,800 -1,440 Descending Indianapolis Center
02:53PM 38.6286 -82.0153 356° North 482 555 25,300 -1,620 Descending Indianapolis Center
02:54PM 38.7586 -82.0281 356° North 466 536 23,500 -2,100 Descending Indianapolis Center
02:55PM 38.8925 -82.0794 343° North 415 478 21,000 -2,220 Descending Indianapolis Center
02:56PM 39.0008 -82.1236 342° North 409 471 19,000 -1,920 Descending Indianapolis Center
02:57PM 39.1081 -82.1664 343° North 403 464 17,100 -1,920 Descending Indianapolis Center
02:58PM 39.2136 -82.2083 343° North 397 457 15,100 -1,860 Descending Indianapolis Center
02:59PM 39.3164 -82.2500 343° North 390 449 13,300 -1,980 Descending Indianapolis Center
02:59PM 39.3497 -82.2658 340° North 386 444 12,700 -2,220 Descending Indianapolis Center
03:00PM 39.3903 -82.2800 345° North 388 447 12,000 -1,320 Descending Indianapolis Center
03:00PM 39.4200 -82.2917 343° North 389 448 11,600 -1,020 Descending Indianapolis Center
03:01PM 39.4856 -82.3186 342° North 387 445 11,100 -540 Descending Indianapolis Center
03:01PM 39.5200 -82.3328 342° North 382 440 11,100 -120 Level Indianapolis Center
03:02PM 39.5681 -82.3797 323° Northwest 346 398 11,000 -120 Descending Indianapolis Center
03:02PM 39.6106 -82.4172 326° Northwest 338 389 11,000 -360 Level Indianapolis Center
03:03PM 39.6478 -82.4514 325° Northwest 320 368 10,600 -780 Descending Indianapolis Center
03:03PM 39.6819 -82.4811 326° Northwest 317 365 10,200 -540 Descending Indianapolis Center
03:04PM 39.7214 -82.5197 323° Northwest 302 348 10,100 -240 Descending Indianapolis Center
03:04PM 39.7494 -82.5431 327° Northwest 301 346 10,000 -540 Descending Indianapolis Center
03:05PM 39.7856 -82.5758 325° Northwest 272 313 9,600 -1,020 Descending Indianapolis Center
03:06PM 39.8089 -82.5964 326° Northwest 266 306 9,000 -1,380 Descending Indianapolis Center
03:06PM 39.8436 -82.6286 325° Northwest 252 290 8,200 -1,260 Descending Indianapolis Center
03:07PM 39.8675 -82.6497 326° Northwest 259 298 7,700 -1,320 Descending Indianapolis Center
03:07PM 39.9017 -82.6811 325° Northwest 256 295 6,900 -1,380 Descending Indianapolis Center
03:08PM 39.9258 -82.7017 327° Northwest 256 295 6,300 -1,680 Descending Indianapolis Center
03:08PM 39.9617 -82.7369 323° Northwest 244 281 5,200 -1,860 Descending Indianapolis Center
03:09PM 39.9908 -82.7611 328° Northwest 246 283 4,400 -1,620 Descending Indianapolis Center
03:09PM 40.0089 -82.7936 306° West 230 265 3,600 -1,380 Descending Indianapolis Center
03:10PM 40.0286 -82.8272 307° West 235 270 3,000 -600 Descending Indianapolis Center
03:10PM 40.0450 -82.8567 306° West 213 245 3,000  Level Indianapolis Center
03:11PM 40.0644 -82.8839 313° West 221 254 3,000 60 Level Indianapolis Center
03:11PM 40.0736 -82.9078 297° West 161 185 3,100  Climbing Indianapolis Center
03:12PM 40.0783 -82.9342 283° West 180 207 3,000 -360 Descending Indianapolis Center
03:12PM 40.0819 -82.9556 282° West 134 154 2,800 -720 Descending Indianapolis Center
03:13PM 40.0822 -82.9822 271° West 153 176 2,300 -840 Descending Indianapolis Center
03:13PM 40.0792 -83.0069 261° West 120 138 1,900 -900 Descending Indianapolis Center
03:14PM 40.0789 -83.0367 269° West 135 155 1,400 -360 Descending Indianapolis Center
03:15PM 40.0769 -83.0811 267° West 132 152 1,300 -120 Descending Indianapolis Center